sensor_id;sensor_type;location;lat;lon;timestamp;P1;durP1;ratioP1;P2;durP2;ratioP2
8260;SDS011;64115;50.170;8.242;2023-08-06T00:01:00;4.00;;;3.80;;
8260;SDS011;64115;50.170;8.242;2023-08-06T00:03:28;4.20;;;3.90;;
8260;SDS011;64115;50.170;8.242;2023-08-06T00:05:54;5.23;;;4.83;;
8260;SDS011;64115;50.170;8.242;2023-08-06T00:08:21;4.97;;;4.37;;
8260;SDS011;64115;50.170;8.242;2023-08-06T00:10:50;4.80;;;4.40;;
8260;SDS011;64115;50.170;8.242;2023-08-06T00:13:16;4.93;;;4.63;;
8260;SDS011;64115;50.170;8.242;2023-08-06T00:15:43;4.70;;;4.40;;
8260;SDS011;64115;50.170;8.242;2023-08-06T00:18:11;4.30;;;4.00;;
8260;SDS011;64115;50.170;8.242;2023-08-06T00:20:38;4.00;;;3.70;;
8260;SDS011;64115;50.170;8.242;2023-08-06T00:23:06;4.70;;;4.40;;
8260;SDS011;64115;50.170;8.242;2023-08-06T00:25:33;4.50;;;4.10;;
8260;SDS011;64115;50.170;8.242;2023-08-06T00:27:59;4.27;;;3.93;;
8260;SDS011;64115;50.170;8.242;2023-08-06T00:30:26;4.20;;;3.87;;
8260;SDS011;64115;50.170;8.242;2023-08-06T00:32:55;4.57;;;4.20;;
8260;SDS011;64115;50.170;8.242;2023-08-06T00:35:23;3.80;;;3.60;;
8260;SDS011;64115;50.170;8.242;2023-08-06T00:37:49;4.50;;;3.87;;
8260;SDS011;64115;50.170;8.242;2023-08-06T00:40:16;4.77;;;3.50;;
8260;SDS011;64115;50.170;8.242;2023-08-06T00:42:46;4.87;;;3.80;;
8260;SDS011;64115;50.170;8.242;2023-08-06T00:45:13;3.57;;;3.37;;
8260;SDS011;64115;50.170;8.242;2023-08-06T00:47:40;4.30;;;3.20;;
8260;SDS011;64115;50.170;8.242;2023-08-06T00:50:07;4.00;;;3.70;;
8260;SDS011;64115;50.170;8.242;2023-08-06T00:52:36;4.43;;;4.03;;
8260;SDS011;64115;50.170;8.242;2023-08-06T00:55:03;4.47;;;3.50;;
8260;SDS011;64115;50.170;8.242;2023-08-06T00:57:31;3.77;;;3.50;;
8260;SDS011;64115;50.170;8.242;2023-08-06T00:59:58;4.13;;;3.70;;
8260;SDS011;64115;50.170;8.242;2023-08-06T01:02:25;6.23;;;3.73;;
8260;SDS011;64115;50.170;8.242;2023-08-06T01:04:52;3.67;;;3.37;;
8260;SDS011;64115;50.170;8.242;2023-08-06T01:07:21;4.27;;;3.33;;
8260;SDS011;64115;50.170;8.242;2023-08-06T01:10:04;3.43;;;3.13;;
8260;SDS011;64115;50.170;8.242;2023-08-06T01:12:45;3.70;;;3.40;;
8260;SDS011;64115;50.170;8.242;2023-08-06T01:15:21;3.30;;;3.10;;
8260;SDS011;64115;50.170;8.242;2023-08-06T01:17:50;3.17;;;2.87;;
8260;SDS011;64115;50.170;8.242;2023-08-06T01:20:18;3.10;;;2.90;;
8260;SDS011;64115;50.170;8.242;2023-08-06T01:22:47;4.00;;;3.37;;
8260;SDS011;64115;50.170;8.242;2023-08-06T01:25:15;3.20;;;3.00;;
8260;SDS011;64115;50.170;8.242;2023-08-06T01:27:43;3.50;;;3.20;;
8260;SDS011;64115;50.170;8.242;2023-08-06T01:30:15;3.40;;;3.20;;
8260;SDS011;64115;50.170;8.242;2023-08-06T01:32:46;6.87;;;4.00;;
8260;SDS011;64115;50.170;8.242;2023-08-06T01:35:21;4.30;;;3.40;;
8260;SDS011;64115;50.170;8.242;2023-08-06T01:37:50;4.63;;;3.97;;
8260;SDS011;64115;50.170;8.242;2023-08-06T01:40:17;5.13;;;3.90;;
8260;SDS011;64115;50.170;8.242;2023-08-06T01:42:44;4.27;;;3.60;;
8260;SDS011;64115;50.170;8.242;2023-08-06T01:45:11;5.33;;;3.87;;
8260;SDS011;64115;50.170;8.242;2023-08-06T01:47:38;5.40;;;4.30;;
8260;SDS011;64115;50.170;8.242;2023-08-06T01:50:05;4.30;;;4.00;;
8260;SDS011;64115;50.170;8.242;2023-08-06T01:52:32;4.40;;;4.07;;
8260;SDS011;64115;50.170;8.242;2023-08-06T01:55:00;6.20;;;4.60;;
8260;SDS011;64115;50.170;8.242;2023-08-06T01:57:27;4.50;;;4.10;;
8260;SDS011;64115;50.170;8.242;2023-08-06T01:59:54;4.47;;;4.13;;
8260;SDS011;64115;50.170;8.242;2023-08-06T02:02:22;4.97;;;4.47;;
8260;SDS011;64115;50.170;8.242;2023-08-06T02:04:49;4.90;;;4.60;;
8260;SDS011;64115;50.170;8.242;2023-08-06T02:07:16;4.67;;;4.03;;
8260;SDS011;64115;50.170;8.242;2023-08-06T02:09:43;5.73;;;3.83;;
8260;SDS011;64115;50.170;8.242;2023-08-06T02:12:11;3.83;;;3.53;;
8260;SDS011;64115;50.170;8.242;2023-08-06T02:14:37;3.97;;;3.67;;
8260;SDS011;64115;50.170;8.242;2023-08-06T02:17:04;3.97;;;3.47;;
8260;SDS011;64115;50.170;8.242;2023-08-06T02:19:31;3.83;;;3.53;;
8260;SDS011;64115;50.170;8.242;2023-08-06T02:21:58;4.80;;;3.77;;
8260;SDS011;64115;50.170;8.242;2023-08-06T02:24:25;4.50;;;4.10;;
8260;SDS011;64115;50.170;8.242;2023-08-06T02:26:51;4.00;;;3.70;;
8260;SDS011;64115;50.170;8.242;2023-08-06T02:29:22;4.50;;;3.70;;
8260;SDS011;64115;50.170;8.242;2023-08-06T02:31:48;5.53;;;3.60;;
8260;SDS011;64115;50.170;8.242;2023-08-06T02:34:15;3.87;;;3.57;;
8260;SDS011;64115;50.170;8.242;2023-08-06T02:36:45;4.40;;;3.40;;
8260;SDS011;64115;50.170;8.242;2023-08-06T02:39:12;4.00;;;3.60;;
8260;SDS011;64115;50.170;8.242;2023-08-06T02:41:38;4.87;;;4.47;;
8260;SDS011;64115;50.170;8.242;2023-08-06T02:44:07;4.20;;;3.80;;
8260;SDS011;64115;50.170;8.242;2023-08-06T02:46:36;4.33;;;4.03;;
8260;SDS011;64115;50.170;8.242;2023-08-06T02:49:02;4.80;;;4.43;;
8260;SDS011;64115;50.170;8.242;2023-08-06T02:51:29;4.80;;;4.47;;
8260;SDS011;64115;50.170;8.242;2023-08-06T02:53:56;6.10;;;4.10;;
8260;SDS011;64115;50.170;8.242;2023-08-06T02:56:22;4.60;;;3.80;;
8260;SDS011;64115;50.170;8.242;2023-08-06T02:58:50;4.27;;;3.87;;
8260;SDS011;64115;50.170;8.242;2023-08-06T03:01:17;4.23;;;3.93;;
8260;SDS011;64115;50.170;8.242;2023-08-06T03:03:45;4.93;;;4.30;;
8260;SDS011;64115;50.170;8.242;2023-08-06T03:06:12;4.60;;;4.20;;
8260;SDS011;64115;50.170;8.242;2023-08-06T03:08:39;6.00;;;5.40;;
8260;SDS011;64115;50.170;8.242;2023-08-06T03:11:06;8.33;;;5.43;;
8260;SDS011;64115;50.170;8.242;2023-08-06T03:13:33;5.30;;;4.90;;
8260;SDS011;64115;50.170;8.242;2023-08-06T03:15:59;4.73;;;4.33;;
8260;SDS011;64115;50.170;8.242;2023-08-06T03:18:26;5.27;;;4.83;;
8260;SDS011;64115;50.170;8.242;2023-08-06T03:20:55;5.80;;;5.23;;
8260;SDS011;64115;50.170;8.242;2023-08-06T03:23:22;5.97;;;4.10;;
8260;SDS011;64115;50.170;8.242;2023-08-06T03:25:48;4.60;;;4.23;;
8260;SDS011;64115;50.170;8.242;2023-08-06T03:28:15;4.50;;;3.77;;
8260;SDS011;64115;50.170;8.242;2023-08-06T03:30:42;3.90;;;3.60;;
8260;SDS011;64115;50.170;8.242;2023-08-06T03:33:09;3.60;;;3.30;;
8260;SDS011;64115;50.170;8.242;2023-08-06T03:35:36;4.30;;;3.27;;
8260;SDS011;64115;50.170;8.242;2023-08-06T03:38:04;5.07;;;4.10;;
8260;SDS011;64115;50.170;8.242;2023-08-06T03:40:30;3.70;;;3.47;;
8260;SDS011;64115;50.170;8.242;2023-08-06T03:42:57;5.10;;;3.90;;
8260;SDS011;64115;50.170;8.242;2023-08-06T03:45:24;3.80;;;3.50;;
8260;SDS011;64115;50.170;8.242;2023-08-06T03:47:51;5.03;;;3.60;;
8260;SDS011;64115;50.170;8.242;2023-08-06T03:50:18;3.50;;;3.20;;
8260;SDS011;64115;50.170;8.242;2023-08-06T03:52:44;4.40;;;4.00;;
8260;SDS011;64115;50.170;8.242;2023-08-06T03:55:12;3.73;;;3.33;;
8260;SDS011;64115;50.170;8.242;2023-08-06T03:57:39;4.30;;;3.90;;
8260;SDS011;64115;50.170;8.242;2023-08-06T04:00:07;7.00;;;4.13;;
8260;SDS011;64115;50.170;8.242;2023-08-06T04:02:34;4.83;;;4.37;;
8260;SDS011;64115;50.170;8.242;2023-08-06T04:05:01;5.87;;;4.30;;
8260;SDS011;64115;50.170;8.242;2023-08-06T04:07:27;5.03;;;3.53;;
8260;SDS011;64115;50.170;8.242;2023-08-06T04:09:55;3.87;;;3.57;;
8260;SDS011;64115;50.170;8.242;2023-08-06T04:12:25;4.30;;;3.80;;
8260;SDS011;64115;50.170;8.242;2023-08-06T04:14:52;3.93;;;3.60;;
8260;SDS011;64115;50.170;8.242;2023-08-06T04:17:20;4.13;;;3.73;;
8260;SDS011;64115;50.170;8.242;2023-08-06T04:19:48;5.30;;;3.73;;
8260;SDS011;64115;50.170;8.242;2023-08-06T04:22:16;4.67;;;3.97;;
8260;SDS011;64115;50.170;8.242;2023-08-06T04:24:43;7.93;;;4.03;;
8260;SDS011;64115;50.170;8.242;2023-08-06T04:27:11;4.17;;;3.80;;
8260;SDS011;64115;50.170;8.242;2023-08-06T04:29:40;3.60;;;3.40;;
8260;SDS011;64115;50.170;8.242;2023-08-06T04:32:07;8.30;;;3.97;;
8260;SDS011;64115;50.170;8.242;2023-08-06T04:34:36;5.40;;;3.57;;
8260;SDS011;64115;50.170;8.242;2023-08-06T04:37:04;3.60;;;3.30;;
8260;SDS011;64115;50.170;8.242;2023-08-06T04:39:31;2.83;;;2.63;;
8260;SDS011;64115;50.170;8.242;2023-08-06T04:41:58;2.80;;;2.60;;
8260;SDS011;64115;50.170;8.242;2023-08-06T04:44:24;3.07;;;2.80;;
8260;SDS011;64115;50.170;8.242;2023-08-06T04:46:53;3.03;;;2.47;;
8260;SDS011;64115;50.170;8.242;2023-08-06T04:49:20;2.07;;;1.80;;
8260;SDS011;64115;50.170;8.242;2023-08-06T04:51:47;2.10;;;2.00;;
8260;SDS011;64115;50.170;8.242;2023-08-06T04:54:14;2.23;;;1.80;;
8260;SDS011;64115;50.170;8.242;2023-08-06T04:56:40;1.60;;;1.50;;
8260;SDS011;64115;50.170;8.242;2023-08-06T04:59:07;1.63;;;1.53;;
8260;SDS011;64115;50.170;8.242;2023-08-06T05:01:34;1.77;;;1.57;;
8260;SDS011;64115;50.170;8.242;2023-08-06T05:04:02;4.50;;;1.67;;
8260;SDS011;64115;50.170;8.242;2023-08-06T05:06:31;1.70;;;1.60;;
8260;SDS011;64115;50.170;8.242;2023-08-06T05:08:57;1.43;;;1.37;;
8260;SDS011;64115;50.170;8.242;2023-08-06T05:11:24;1.70;;;1.60;;
8260;SDS011;64115;50.170;8.242;2023-08-06T05:13:51;1.50;;;1.40;;
8260;SDS011;64115;50.170;8.242;2023-08-06T05:16:18;1.50;;;1.33;;
8260;SDS011;64115;50.170;8.242;2023-08-06T05:18:44;2.63;;;1.60;;
8260;SDS011;64115;50.170;8.242;2023-08-06T05:21:12;1.53;;;1.20;;
8260;SDS011;64115;50.170;8.242;2023-08-06T05:23:41;1.33;;;1.23;;
8260;SDS011;64115;50.170;8.242;2023-08-06T05:26:08;1.47;;;1.40;;
8260;SDS011;64115;50.170;8.242;2023-08-06T05:28:34;1.10;;;1.10;;
8260;SDS011;64115;50.170;8.242;2023-08-06T05:31:02;1.10;;;1.10;;
8260;SDS011;64115;50.170;8.242;2023-08-06T05:33:30;3.77;;;1.33;;
8260;SDS011;64115;50.170;8.242;2023-08-06T05:35:56;1.10;;;1.00;;
8260;SDS011;64115;50.170;8.242;2023-08-06T05:38:24;1.57;;;1.20;;
8260;SDS011;64115;50.170;8.242;2023-08-06T05:40:51;1.10;;;1.10;;
8260;SDS011;64115;50.170;8.242;2023-08-06T05:43:18;0.90;;;0.80;;
8260;SDS011;64115;50.170;8.242;2023-08-06T05:45:45;1.03;;;1.03;;
8260;SDS011;64115;50.170;8.242;2023-08-06T05:48:12;0.90;;;0.90;;
8260;SDS011;64115;50.170;8.242;2023-08-06T05:50:39;3.43;;;0.80;;
8260;SDS011;64115;50.170;8.242;2023-08-06T05:53:06;1.03;;;0.63;;
8260;SDS011;64115;50.170;8.242;2023-08-06T05:55:36;1.03;;;0.77;;
8260;SDS011;64115;50.170;8.242;2023-08-06T05:58:04;0.80;;;0.73;;
8260;SDS011;64115;50.170;8.242;2023-08-06T06:00:31;0.30;;;0.30;;
8260;SDS011;64115;50.170;8.242;2023-08-06T06:02:59;0.60;;;0.60;;
8260;SDS011;64115;50.170;8.242;2023-08-06T06:05:28;0.50;;;0.50;;
8260;SDS011;64115;50.170;8.242;2023-08-06T06:07:58;0.40;;;0.40;;
8260;SDS011;64115;50.170;8.242;2023-08-06T06:10:25;1.17;;;0.40;;
8260;SDS011;64115;50.170;8.242;2023-08-06T06:12:53;0.30;;;0.30;;
8260;SDS011;64115;50.170;8.242;2023-08-06T06:15:19;0.43;;;0.40;;
8260;SDS011;64115;50.170;8.242;2023-08-06T06:17:46;0.97;;;0.27;;
8260;SDS011;64115;50.170;8.242;2023-08-06T06:20:13;0.50;;;0.50;;
8260;SDS011;64115;50.170;8.242;2023-08-06T06:22:42;0.37;;;0.37;;
8260;SDS011;64115;50.170;8.242;2023-08-06T06:25:09;0.50;;;0.50;;
8260;SDS011;64115;50.170;8.242;2023-08-06T06:27:36;1.00;;;0.60;;
8260;SDS011;64115;50.170;8.242;2023-08-06T06:30:07;1.43;;;0.67;;
8260;SDS011;64115;50.170;8.242;2023-08-06T06:32:39;0.40;;;0.40;;
8260;SDS011;64115;50.170;8.242;2023-08-06T06:35:07;0.10;;;0.10;;
8260;SDS011;64115;50.170;8.242;2023-08-06T06:37:34;0.43;;;0.43;;
8260;SDS011;64115;50.170;8.242;2023-08-06T06:40:01;1.90;;;0.47;;
8260;SDS011;64115;50.170;8.242;2023-08-06T06:42:29;0.33;;;0.33;;
8260;SDS011;64115;50.170;8.242;2023-08-06T06:44:56;1.00;;;0.30;;
8260;SDS011;64115;50.170;8.242;2023-08-06T06:47:24;0.23;;;0.17;;
8260;SDS011;64115;50.170;8.242;2023-08-06T06:49:51;0.63;;;0.10;;
8260;SDS011;64115;50.170;8.242;2023-08-06T06:52:18;0.10;;;0.10;;
8260;SDS011;64115;50.170;8.242;2023-08-06T06:54:45;0.10;;;0.10;;
8260;SDS011;64115;50.170;8.242;2023-08-06T06:57:12;0.30;;;0.20;;
8260;SDS011;64115;50.170;8.242;2023-08-06T06:59:38;0.77;;;0.20;;
8260;SDS011;64115;50.170;8.242;2023-08-06T07:02:05;0.00;;;0.00;;
8260;SDS011;64115;50.170;8.242;2023-08-06T07:04:33;1.07;;;0.10;;
8260;SDS011;64115;50.170;8.242;2023-08-06T07:07:00;0.20;;;0.20;;
8260;SDS011;64115;50.170;8.242;2023-08-06T07:09:27;0.77;;;0.10;;
8260;SDS011;64115;50.170;8.242;2023-08-06T07:11:54;0.30;;;0.23;;
8260;SDS011;64115;50.170;8.242;2023-08-06T07:14:20;0.20;;;0.20;;
8260;SDS011;64115;50.170;8.242;2023-08-06T07:16:47;0.10;;;0.10;;
8260;SDS011;64115;50.170;8.242;2023-08-06T07:19:14;0.10;;;0.10;;
8260;SDS011;64115;50.170;8.242;2023-08-06T07:21:42;0.53;;;0.40;;
8260;SDS011;64115;50.170;8.242;2023-08-06T07:24:09;0.40;;;0.40;;
8260;SDS011;64115;50.170;8.242;2023-08-06T07:26:36;1.23;;;0.40;;
8260;SDS011;64115;50.170;8.242;2023-08-06T07:29:03;0.40;;;0.40;;
8260;SDS011;64115;50.170;8.242;2023-08-06T07:31:30;0.40;;;0.40;;
8260;SDS011;64115;50.170;8.242;2023-08-06T07:33:58;0.87;;;0.30;;
8260;SDS011;64115;50.170;8.242;2023-08-06T07:36:25;0.60;;;0.60;;
8260;SDS011;64115;50.170;8.242;2023-08-06T07:38:53;0.50;;;0.50;;
8260;SDS011;64115;50.170;8.242;2023-08-06T07:41:21;1.10;;;0.57;;
8260;SDS011;64115;50.170;8.242;2023-08-06T07:43:48;0.40;;;0.40;;
8260;SDS011;64115;50.170;8.242;2023-08-06T07:46:15;0.37;;;0.37;;
8260;SDS011;64115;50.170;8.242;2023-08-06T07:48:42;2.53;;;0.60;;
8260;SDS011;64115;50.170;8.242;2023-08-06T07:51:09;0.30;;;0.30;;
8260;SDS011;64115;50.170;8.242;2023-08-06T07:53:37;0.97;;;0.40;;
8260;SDS011;64115;50.170;8.242;2023-08-06T07:56:05;0.30;;;0.30;;
8260;SDS011;64115;50.170;8.242;2023-08-06T07:58:32;0.30;;;0.30;;
8260;SDS011;64115;50.170;8.242;2023-08-06T08:00:58;0.40;;;0.40;;
8260;SDS011;64115;50.170;8.242;2023-08-06T08:03:25;0.50;;;0.50;;
8260;SDS011;64115;50.170;8.242;2023-08-06T08:05:54;0.40;;;0.40;;
8260;SDS011;64115;50.170;8.242;2023-08-06T08:08:23;0.30;;;0.30;;
8260;SDS011;64115;50.170;8.242;2023-08-06T08:10:50;1.90;;;0.47;;
8260;SDS011;64115;50.170;8.242;2023-08-06T08:13:18;0.83;;;0.40;;
8260;SDS011;64115;50.170;8.242;2023-08-06T08:15:45;0.40;;;0.40;;
8260;SDS011;64115;50.170;8.242;2023-08-06T08:18:12;0.30;;;0.30;;
8260;SDS011;64115;50.170;8.242;2023-08-06T08:20:38;0.43;;;0.30;;
8260;SDS011;64115;50.170;8.242;2023-08-06T08:23:05;0.20;;;0.20;;
8260;SDS011;64115;50.170;8.242;2023-08-06T08:25:32;0.40;;;0.40;;
8260;SDS011;64115;50.170;8.242;2023-08-06T08:28:01;0.40;;;0.40;;
8260;SDS011;64115;50.170;8.242;2023-08-06T08:30:30;0.30;;;0.30;;
8260;SDS011;64115;50.170;8.242;2023-08-06T08:32:56;1.27;;;0.50;;
8260;SDS011;64115;50.170;8.242;2023-08-06T08:35:23;0.50;;;0.50;;
8260;SDS011;64115;50.170;8.242;2023-08-06T08:37:50;0.30;;;0.30;;
8260;SDS011;64115;50.170;8.242;2023-08-06T08:40:17;1.87;;;0.40;;
8260;SDS011;64115;50.170;8.242;2023-08-06T08:42:44;1.10;;;0.30;;
8260;SDS011;64115;50.170;8.242;2023-08-06T08:45:11;0.30;;;0.30;;
8260;SDS011;64115;50.170;8.242;2023-08-06T08:47:41;2.10;;;0.50;;
8260;SDS011;64115;50.170;8.242;2023-08-06T08:50:09;0.10;;;0.10;;
8260;SDS011;64115;50.170;8.242;2023-08-06T08:52:38;0.30;;;0.27;;
8260;SDS011;64115;50.170;8.242;2023-08-06T08:55:07;1.90;;;0.20;;
8260;SDS011;64115;50.170;8.242;2023-08-06T08:57:34;0.33;;;0.33;;
8260;SDS011;64115;50.170;8.242;2023-08-06T09:00:02;2.10;;;0.60;;
8260;SDS011;64115;50.170;8.242;2023-08-06T09:02:29;0.27;;;0.23;;
8260;SDS011;64115;50.170;8.242;2023-08-06T09:05:00;0.33;;;0.33;;
8260;SDS011;64115;50.170;8.242;2023-08-06T09:07:30;0.40;;;0.40;;
8260;SDS011;64115;50.170;8.242;2023-08-06T09:10:01;1.10;;;0.30;;
8260;SDS011;64115;50.170;8.242;2023-08-06T09:12:30;0.83;;;0.40;;
8260;SDS011;64115;50.170;8.242;2023-08-06T09:14:56;0.90;;;0.30;;
8260;SDS011;64115;50.170;8.242;2023-08-06T09:17:24;1.27;;;0.30;;
8260;SDS011;64115;50.170;8.242;2023-08-06T09:19:50;0.87;;;0.40;;
8260;SDS011;64115;50.170;8.242;2023-08-06T09:22:18;0.40;;;0.40;;
8260;SDS011;64115;50.170;8.242;2023-08-06T09:24:45;0.40;;;0.40;;
8260;SDS011;64115;50.170;8.242;2023-08-06T09:27:13;1.07;;;0.77;;
8260;SDS011;64115;50.170;8.242;2023-08-06T09:29:41;0.20;;;0.20;;
8260;SDS011;64115;50.170;8.242;2023-08-06T09:32:08;1.83;;;1.37;;
8260;SDS011;64115;50.170;8.242;2023-08-06T09:34:35;2.10;;;0.60;;
8260;SDS011;64115;50.170;8.242;2023-08-06T09:37:05;0.50;;;0.23;;
8260;SDS011;64115;50.170;8.242;2023-08-06T09:39:35;0.50;;;0.30;;
8260;SDS011;64115;50.170;8.242;2023-08-06T09:42:02;1.17;;;0.50;;
8260;SDS011;64115;50.170;8.242;2023-08-06T09:44:30;0.57;;;0.47;;
8260;SDS011;64115;50.170;8.242;2023-08-06T09:46:58;0.33;;;0.33;;
8260;SDS011;64115;50.170;8.242;2023-08-06T09:49:26;0.20;;;0.20;;
8260;SDS011;64115;50.170;8.242;2023-08-06T09:51:54;1.17;;;0.20;;
8260;SDS011;64115;50.170;8.242;2023-08-06T09:54:23;3.70;;;0.80;;
8260;SDS011;64115;50.170;8.242;2023-08-06T09:56:53;0.20;;;0.20;;
8260;SDS011;64115;50.170;8.242;2023-08-06T09:59:20;1.50;;;0.30;;
8260;SDS011;64115;50.170;8.242;2023-08-06T10:01:47;0.53;;;0.30;;
8260;SDS011;64115;50.170;8.242;2023-08-06T10:04:15;1.10;;;0.30;;
8260;SDS011;64115;50.170;8.242;2023-08-06T10:06:43;0.77;;;0.20;;
8260;SDS011;64115;50.170;8.242;2023-08-06T10:09:13;0.30;;;0.20;;
8260;SDS011;64115;50.170;8.242;2023-08-06T10:11:40;0.40;;;0.20;;
8260;SDS011;64115;50.170;8.242;2023-08-06T10:14:15;0.10;;;0.10;;
8260;SDS011;64115;50.170;8.242;2023-08-06T10:16:45;0.20;;;0.10;;
8260;SDS011;64115;50.170;8.242;2023-08-06T10:19:13;0.10;;;0.10;;
8260;SDS011;64115;50.170;8.242;2023-08-06T10:21:44;0.30;;;0.10;;
8260;SDS011;64115;50.170;8.242;2023-08-06T10:24:44;1.03;;;0.20;;
8260;SDS011;64115;50.170;8.242;2023-08-06T10:27:12;0.33;;;0.20;;
8260;SDS011;64115;50.170;8.242;2023-08-06T10:29:40;0.30;;;0.30;;
8260;SDS011;64115;50.170;8.242;2023-08-06T10:32:07;0.73;;;0.20;;
8260;SDS011;64115;50.170;8.242;2023-08-06T10:37:20;0.20;;;0.20;;
8260;SDS011;64115;50.170;8.242;2023-08-06T10:39:48;0.30;;;0.20;;
8260;SDS011;64115;50.170;8.242;2023-08-06T10:42:19;0.10;;;0.10;;
8260;SDS011;64115;50.170;8.242;2023-08-06T10:45:13;0.40;;;0.40;;
8260;SDS011;64115;50.170;8.242;2023-08-06T10:47:41;0.20;;;0.20;;
8260;SDS011;64115;50.170;8.242;2023-08-06T10:50:10;1.40;;;0.30;;
8260;SDS011;64115;50.170;8.242;2023-08-06T10:52:38;0.10;;;0.10;;
8260;SDS011;64115;50.170;8.242;2023-08-06T10:55:05;0.47;;;0.30;;
8260;SDS011;64115;50.170;8.242;2023-08-06T10:57:34;0.37;;;0.17;;
8260;SDS011;64115;50.170;8.242;2023-08-06T11:00:01;1.17;;;0.27;;
8260;SDS011;64115;50.170;8.242;2023-08-06T11:02:29;0.30;;;0.30;;
8260;SDS011;64115;50.170;8.242;2023-08-06T11:05:04;0.30;;;0.30;;
8260;SDS011;64115;50.170;8.242;2023-08-06T11:07:34;0.60;;;0.20;;
8260;SDS011;64115;50.170;8.242;2023-08-06T11:10:04;0.70;;;0.20;;
8260;SDS011;64115;50.170;8.242;2023-08-06T11:12:32;0.40;;;0.27;;
8260;SDS011;64115;50.170;8.242;2023-08-06T11:15:00;0.73;;;0.50;;
8260;SDS011;64115;50.170;8.242;2023-08-06T11:17:29;2.00;;;0.70;;
8260;SDS011;64115;50.170;8.242;2023-08-06T11:19:58;1.50;;;0.40;;
8260;SDS011;64115;50.170;8.242;2023-08-06T11:22:26;2.00;;;0.60;;
8260;SDS011;64115;50.170;8.242;2023-08-06T11:24:53;0.40;;;0.40;;
8260;SDS011;64115;50.170;8.242;2023-08-06T11:27:20;2.20;;;0.60;;
8260;SDS011;64115;50.170;8.242;2023-08-06T11:29:47;1.13;;;0.40;;
8260;SDS011;64115;50.170;8.242;2023-08-06T11:32:13;2.00;;;0.20;;
8260;SDS011;64115;50.170;8.242;2023-08-06T11:34:42;0.47;;;0.47;;
8260;SDS011;64115;50.170;8.242;2023-08-06T11:37:09;1.40;;;0.50;;
8260;SDS011;64115;50.170;8.242;2023-08-06T11:39:37;2.60;;;0.40;;
8260;SDS011;64115;50.170;8.242;2023-08-06T11:42:04;1.07;;;0.13;;
8260;SDS011;64115;50.170;8.242;2023-08-06T11:44:34;0.40;;;0.20;;
8260;SDS011;64115;50.170;8.242;2023-08-06T11:47:02;0.10;;;0.10;;
8260;SDS011;64115;50.170;8.242;2023-08-06T11:49:37;0.30;;;0.30;;
8260;SDS011;64115;50.170;8.242;2023-08-06T11:52:09;0.20;;;0.20;;
8260;SDS011;64115;50.170;8.242;2023-08-06T11:54:37;0.23;;;0.20;;
8260;SDS011;64115;50.170;8.242;2023-08-06T11:57:05;0.47;;;0.37;;
8260;SDS011;64115;50.170;8.242;2023-08-06T11:59:32;1.40;;;0.40;;
8260;SDS011;64115;50.170;8.242;2023-08-06T12:02:02;1.57;;;0.30;;
8260;SDS011;64115;50.170;8.242;2023-08-06T12:04:30;0.20;;;0.20;;
8260;SDS011;64115;50.170;8.242;2023-08-06T12:07:04;1.33;;;0.50;;
8260;SDS011;64115;50.170;8.242;2023-08-06T12:09:34;0.40;;;0.40;;
8260;SDS011;64115;50.170;8.242;2023-08-06T12:12:01;0.53;;;0.50;;
8260;SDS011;64115;50.170;8.242;2023-08-06T12:14:28;0.60;;;0.50;;
8260;SDS011;64115;50.170;8.242;2023-08-06T12:16:55;0.40;;;0.33;;
8260;SDS011;64115;50.170;8.242;2023-08-06T12:19:21;0.50;;;0.50;;
8260;SDS011;64115;50.170;8.242;2023-08-06T12:21:48;2.10;;;0.37;;
8260;SDS011;64115;50.170;8.242;2023-08-06T12:24:15;1.13;;;0.30;;
8260;SDS011;64115;50.170;8.242;2023-08-06T12:26:43;1.23;;;0.50;;
8260;SDS011;64115;50.170;8.242;2023-08-06T12:29:10;0.60;;;0.60;;
8260;SDS011;64115;50.170;8.242;2023-08-06T12:31:36;0.67;;;0.67;;
8260;SDS011;64115;50.170;8.242;2023-08-06T12:34:03;0.50;;;0.40;;
8260;SDS011;64115;50.170;8.242;2023-08-06T12:36:30;2.63;;;0.50;;
8260;SDS011;64115;50.170;8.242;2023-08-06T12:38:57;0.50;;;0.50;;
8260;SDS011;64115;50.170;8.242;2023-08-06T12:41:23;0.90;;;0.60;;
8260;SDS011;64115;50.170;8.242;2023-08-06T12:43:52;0.50;;;0.50;;
8260;SDS011;64115;50.170;8.242;2023-08-06T12:46:18;5.47;;;3.50;;
8260;SDS011;64115;50.170;8.242;2023-08-06T12:48:45;1.33;;;0.70;;
8260;SDS011;64115;50.170;8.242;2023-08-06T12:51:13;0.50;;;0.50;;
8260;SDS011;64115;50.170;8.242;2023-08-06T12:53:40;1.20;;;0.47;;
8260;SDS011;64115;50.170;8.242;2023-08-06T12:56:07;0.50;;;0.50;;
8260;SDS011;64115;50.170;8.242;2023-08-06T12:58:33;0.47;;;0.47;;
8260;SDS011;64115;50.170;8.242;2023-08-06T13:01:02;0.70;;;0.70;;
8260;SDS011;64115;50.170;8.242;2023-08-06T13:03:28;1.07;;;0.40;;
8260;SDS011;64115;50.170;8.242;2023-08-06T13:05:55;0.53;;;0.53;;
8260;SDS011;64115;50.170;8.242;2023-08-06T13:08:23;1.03;;;0.40;;
8260;SDS011;64115;50.170;8.242;2023-08-06T13:10:50;0.70;;;0.50;;
8260;SDS011;64115;50.170;8.242;2023-08-06T13:13:16;1.10;;;0.40;;
8260;SDS011;64115;50.170;8.242;2023-08-06T13:15:43;0.60;;;0.60;;
8260;SDS011;64115;50.170;8.242;2023-08-06T13:18:11;0.47;;;0.47;;
8260;SDS011;64115;50.170;8.242;2023-08-06T13:20:38;1.80;;;0.80;;
8260;SDS011;64115;50.170;8.242;2023-08-06T13:23:06;1.23;;;0.63;;
8260;SDS011;64115;50.170;8.242;2023-08-06T13:25:32;0.97;;;0.60;;
8260;SDS011;64115;50.170;8.242;2023-08-06T13:28:02;0.60;;;0.57;;
8260;SDS011;64115;50.170;8.242;2023-08-06T13:30:29;0.53;;;0.43;;
8260;SDS011;64115;50.170;8.242;2023-08-06T13:32:57;0.40;;;0.40;;
8260;SDS011;64115;50.170;8.242;2023-08-06T13:35:25;1.80;;;0.47;;
8260;SDS011;64115;50.170;8.242;2023-08-06T13:37:52;0.60;;;0.60;;
8260;SDS011;64115;50.170;8.242;2023-08-06T13:40:22;0.30;;;0.30;;
8260;SDS011;64115;50.170;8.242;2023-08-06T13:42:48;0.53;;;0.53;;
8260;SDS011;64115;50.170;8.242;2023-08-06T13:45:15;0.50;;;0.50;;
8260;SDS011;64115;50.170;8.242;2023-08-06T13:47:42;0.53;;;0.53;;
8260;SDS011;64115;50.170;8.242;2023-08-06T13:50:09;0.57;;;0.57;;
8260;SDS011;64115;50.170;8.242;2023-08-06T13:52:37;0.30;;;0.30;;
8260;SDS011;64115;50.170;8.242;2023-08-06T13:55:04;0.80;;;0.40;;
8260;SDS011;64115;50.170;8.242;2023-08-06T13:57:32;0.50;;;0.47;;
8260;SDS011;64115;50.170;8.242;2023-08-06T14:00:00;0.60;;;0.60;;
8260;SDS011;64115;50.170;8.242;2023-08-06T14:02:27;0.43;;;0.40;;
8260;SDS011;64115;50.170;8.242;2023-08-06T14:04:54;1.60;;;0.77;;
8260;SDS011;64115;50.170;8.242;2023-08-06T14:07:21;0.40;;;0.40;;
8260;SDS011;64115;50.170;8.242;2023-08-06T14:09:50;0.57;;;0.40;;
8260;SDS011;64115;50.170;8.242;2023-08-06T14:12:16;1.00;;;0.40;;
8260;SDS011;64115;50.170;8.242;2023-08-06T14:14:43;0.50;;;0.30;;
8260;SDS011;64115;50.170;8.242;2023-08-06T14:17:10;0.30;;;0.30;;
8260;SDS011;64115;50.170;8.242;2023-08-06T14:19:37;0.63;;;0.40;;
8260;SDS011;64115;50.170;8.242;2023-08-06T14:22:03;0.33;;;0.30;;
8260;SDS011;64115;50.170;8.242;2023-08-06T14:24:30;0.70;;;0.30;;
8260;SDS011;64115;50.170;8.242;2023-08-06T14:26:58;0.40;;;0.37;;
8260;SDS011;64115;50.170;8.242;2023-08-06T14:29:27;0.40;;;0.33;;
8260;SDS011;64115;50.170;8.242;2023-08-06T14:31:54;1.00;;;0.40;;
8260;SDS011;64115;50.170;8.242;2023-08-06T14:34:21;0.30;;;0.30;;
8260;SDS011;64115;50.170;8.242;2023-08-06T14:36:47;0.30;;;0.30;;
8260;SDS011;64115;50.170;8.242;2023-08-06T14:39:14;0.53;;;0.20;;
8260;SDS011;64115;50.170;8.242;2023-08-06T14:41:41;0.40;;;0.30;;
8260;SDS011;64115;50.170;8.242;2023-08-06T14:44:09;0.30;;;0.23;;
8260;SDS011;64115;50.170;8.242;2023-08-06T14:46:36;0.37;;;0.30;;
8260;SDS011;64115;50.170;8.242;2023-08-06T14:49:03;0.13;;;0.13;;
8260;SDS011;64115;50.170;8.242;2023-08-06T14:51:30;0.20;;;0.10;;
8260;SDS011;64115;50.170;8.242;2023-08-06T14:53:57;0.60;;;0.30;;
8260;SDS011;64115;50.170;8.242;2023-08-06T14:56:23;0.20;;;0.20;;
8260;SDS011;64115;50.170;8.242;2023-08-06T14:58:50;0.33;;;0.30;;
8260;SDS011;64115;50.170;8.242;2023-08-06T15:01:18;0.30;;;0.27;;
8260;SDS011;64115;50.170;8.242;2023-08-06T15:03:45;0.60;;;0.50;;
8260;SDS011;64115;50.170;8.242;2023-08-06T15:06:12;0.73;;;0.20;;